Decoded Metar for UIUU (ULAN-UDE in RUSSIA) (IATA:UUD) | Meteo·Mobile Aviation Weather
aviador You're here:

UIUU Decoded Metar

ULAN-UDE in RUSSIA
Report Time2019-02-20 00:30:00
UTC Time2019-02-20 00:46:22
Flight Rules ifr IFR
WindCalm
Visibility4100 m
Phenomena:Mist
Clouds:N/A
Expected CloudBase > 1,200 ft AGL from Temp-Dew spread
CeilingNone
Temp-24°C (ISA -36)
Dew Point-27°C (76% RH)
AAT-27.8°C
QNH1025 hPa
Density Alt-3,297 ft
Elevation1,690 ft
Report Wrong Elevation
Raw Report
METAR UIUU 200030Z 00000MPS 4100 BR NSC M24/M27 Q1025 R26/810555 NOSIG
RMK QFE724/0966=

Extra information for UIUU:More info

Metar Taf Metar & Taf Last 4 Metars F.Rules Stats Wind Profile Meteogram Temp Stats Airport Information Weather charts Add Link Nearby VenuesMetar ALERT Operation Metar Decoded Social comments